Talladega, Alabama
Current Conditions -  °F | °C
As of 7:35 PM on Monday 24 Nov 2014 (Local Time) from KASN Reporting Station
Clear Clear  
Wind Chill: 57°   Ceiling: Unl
Heat Index: 57°   Visibility: 10mi
Dew Point: 44°   Wind: 3mph
Humidity: 63%   Direction: 310°NW
Pressure: 29.97"   Gusts: NA
Location:  33.43°N, 86.1°W
Report Text: KASN 250135Z AUTO 31003KT 10SM CLR 14/07 A2997 RMK AO2 T01370068
Loading
Personal Weather Stations






























Interactive Weather Map New forecast layout! Learn more

10-Day Weather Forecast

Advertisements
Track Severe Weather on mobile